createdAt,value
2018-12-17T00:04:00.984Z,10.27
2018-12-17T00:09:05.726Z,7.57
2018-12-17T00:14:08.953Z,8.90
2018-12-17T00:19:12.255Z,7.60
2018-12-17T00:24:15.489Z,9.23
2018-12-17T00:29:18.699Z,8.00
2018-12-17T00:34:21.943Z,9.53
2018-12-17T00:39:25.661Z,7.60
2018-12-17T00:44:29.360Z,8.73
2018-12-17T00:49:32.970Z,7.43
2018-12-17T00:54:36.206Z,6.67
2018-12-17T00:59:39.445Z,8.10
2018-12-17T01:04:42.660Z,7.80
2018-12-17T01:09:46.050Z,9.47
2018-12-17T01:14:49.283Z,9.60
2018-12-17T01:19:52.500Z,8.30
2018-12-17T01:24:55.708Z,8.07
2018-12-17T01:29:58.936Z,7.63
2018-12-17T01:35:02.431Z,8.60
2018-12-17T01:40:05.866Z,8.13
2018-12-17T01:45:09.134Z,7.40
2018-12-17T01:50:12.503Z,7.23
2018-12-17T01:55:15.752Z,7.33
2018-12-17T02:00:19.005Z,6.80
2018-12-17T02:05:22.251Z,6.87
2018-12-17T02:10:25.490Z,8.07
2018-12-17T02:15:28.788Z,5.33
2018-12-17T02:20:31.996Z,7.57
2018-12-17T02:25:35.264Z,7.53
2018-12-17T02:30:38.551Z,10.77
2018-12-17T02:35:41.854Z,7.27
2018-12-17T02:40:45.074Z,8.37
2018-12-17T02:45:48.306Z,8.47
2018-12-17T02:50:51.497Z,8.70
2018-12-17T02:55:54.698Z,7.83
2018-12-17T03:00:58.035Z,7.63
2018-12-17T03:06:01.323Z,7.43
2018-12-17T03:11:04.742Z,7.10
2018-12-17T03:16:07.990Z,7.90
2018-12-17T03:21:11.239Z,9.20
2018-12-17T03:26:14.595Z,6.20
2018-12-17T03:31:17.825Z,8.03
2018-12-17T03:36:21.136Z,7.83
2018-12-17T03:41:24.488Z,6.37
2018-12-17T03:46:28.350Z,8.00
2018-12-17T03:51:31.604Z,7.77
2018-12-17T03:56:34.813Z,8.37
2018-12-17T04:01:37.998Z,6.03
2018-12-17T04:06:41.257Z,7.53
2018-12-17T04:11:44.515Z,9.60
2018-12-17T04:16:47.828Z,6.80
2018-12-17T04:21:52.946Z,5.97
2018-12-17T04:26:56.644Z,6.37
2018-12-17T04:31:59.915Z,7.67
2018-12-17T04:37:03.173Z,6.70
2018-12-17T04:42:06.397Z,6.57
2018-12-17T04:47:09.658Z,6.93
2018-12-17T04:52:12.872Z,5.80
2018-12-17T04:57:16.268Z,5.70
2018-12-17T05:02:19.469Z,7.13
2018-12-17T05:07:22.777Z,6.33
2018-12-17T05:12:25.972Z,8.03
2018-12-17T05:17:29.155Z,7.57
2018-12-17T05:22:32.555Z,6.60
2018-12-17T05:27:35.926Z,8.03
2018-12-17T05:32:39.141Z,7.60
2018-12-17T05:37:42.406Z,5.43
2018-12-17T05:42:45.671Z,4.90
2018-12-17T05:47:48.847Z,7.90
2018-12-17T05:52:52.087Z,6.73
2018-12-17T05:57:55.386Z,6.97
2018-12-17T06:02:58.719Z,7.47
2018-12-17T06:08:01.997Z,8.80
2018-12-17T06:13:05.241Z,6.30
2018-12-17T06:18:08.532Z,6.30
2018-12-17T06:23:11.795Z,5.90
2018-12-17T06:28:15.387Z,6.47
2018-12-17T06:33:18.721Z,7.70
2018-12-17T06:38:22.181Z,8.07
2018-12-17T06:43:25.453Z,7.83
2018-12-17T06:48:28.805Z,8.70
2018-12-17T06:53:32.117Z,7.23
2018-12-17T06:58:35.841Z,8.33
2018-12-17T07:03:39.159Z,5.83
2018-12-17T07:08:42.978Z,5.47
2018-12-17T07:13:46.919Z,6.73
2018-12-17T07:18:50.297Z,8.30
2018-12-17T07:23:53.931Z,6.47
2018-12-17T07:28:57.575Z,8.20
2018-12-17T07:34:00.845Z,7.03
2018-12-17T07:39:05.680Z,6.63
2018-12-17T07:44:09.029Z,6.00
2018-12-17T07:49:12.407Z,5.60
2018-12-17T07:54:15.677Z,6.30
2018-12-17T07:59:18.975Z,6.10
2018-12-17T08:04:22.233Z,5.87
2018-12-17T08:09:25.459Z,6.00
2018-12-17T08:14:28.692Z,4.90
2018-12-17T08:19:31.986Z,5.17
2018-12-17T08:24:35.691Z,4.87
2018-12-17T08:29:39.146Z,4.33
2018-12-17T08:34:43.016Z,4.93
2018-12-17T08:39:47.108Z,5.33
2018-12-17T08:44:50.419Z,5.63
2018-12-17T08:49:53.668Z,7.50
2018-12-17T08:54:57.336Z,5.00
2018-12-17T09:00:00.615Z,7.77
2018-12-17T09:05:04.476Z,5.57
2018-12-17T09:10:08.203Z,4.20
2018-12-17T09:15:11.562Z,4.37
2018-12-17T09:20:14.810Z,6.30
2018-12-17T09:25:18.399Z,6.93
2018-12-17T09:30:21.758Z,6.00
2018-12-17T09:35:25.067Z,6.60
2018-12-17T09:40:28.375Z,5.23
2018-12-17T09:45:33.039Z,5.90
2018-12-17T09:50:36.475Z,5.93
2018-12-17T09:55:39.814Z,4.30
2018-12-17T10:00:43.087Z,6.07
2018-12-17T10:05:46.380Z,5.73
2018-12-17T10:10:49.721Z,6.53
2018-12-17T10:15:52.941Z,6.23
2018-12-17T10:20:56.350Z,5.83
2018-12-17T10:25:59.781Z,6.83
2018-12-17T10:31:03.050Z,4.73
2018-12-17T10:36:07.101Z,6.90
2018-12-17T10:41:10.451Z,6.20
2018-12-17T10:46:13.905Z,5.77
2018-12-17T10:51:17.194Z,10.80
2018-12-17T10:56:20.461Z,6.27
2018-12-17T11:01:29.255Z,7.40
2018-12-17T11:06:32.741Z,7.57
2018-12-17T11:11:35.950Z,6.97
2018-12-17T11:16:39.506Z,5.93
2018-12-17T11:21:42.863Z,7.10
2018-12-17T11:26:46.629Z,6.50
2018-12-17T11:31:50.149Z,9.10
2018-12-17T11:36:53.693Z,5.47
2018-12-17T11:41:57.130Z,5.70
2018-12-17T11:47:00.650Z,8.37
2018-12-17T11:52:04.220Z,6.73
2018-12-17T11:58:22.302Z,9.17
2018-12-17T12:03:25.573Z,10.60
2018-12-17T12:08:28.861Z,8.43
2018-12-17T12:13:32.226Z,8.93
2018-12-17T12:18:35.522Z,8.17
2018-12-17T12:23:38.874Z,7.70
2018-12-17T12:28:42.149Z,5.67
2018-12-17T12:33:45.574Z,6.33
2018-12-17T12:38:48.957Z,9.30
2018-12-17T12:43:52.619Z,8.30
2018-12-17T12:48:56.253Z,7.17
2018-12-17T12:53:59.532Z,10.40
2018-12-17T12:59:03.355Z,6.23
2018-12-17T13:04:06.769Z,9.87
2018-12-17T13:09:10.025Z,7.60
2018-12-17T13:14:13.289Z,7.80
2018-12-17T13:19:16.564Z,7.57
2018-12-17T13:24:19.946Z,7.83
2018-12-17T13:29:23.255Z,7.60
2018-12-17T13:34:26.616Z,6.93
2018-12-17T13:39:29.883Z,7.00
2018-12-17T13:44:33.294Z,8.67
2018-12-17T13:49:36.596Z,7.53
2018-12-17T13:54:40.096Z,7.73
2018-12-17T13:59:43.442Z,5.37
2018-12-17T14:04:46.924Z,6.53
2018-12-17T14:09:55.582Z,7.17
2018-12-17T14:14:59.142Z,6.93
2018-12-17T14:20:07.713Z,6.80
2018-12-17T14:25:11.816Z,8.73
2018-12-17T14:30:15.468Z,6.20
2018-12-17T14:35:18.885Z,10.03
2018-12-17T14:40:22.266Z,7.20
2018-12-17T14:45:25.607Z,5.40
2018-12-17T14:50:28.876Z,6.10
2018-12-17T14:55:33.956Z,6.23
2018-12-17T15:00:37.437Z,4.13
2018-12-17T15:05:41.012Z,7.70
2018-12-17T15:10:44.548Z,5.30
2018-12-17T15:15:48.139Z,4.30
2018-12-17T15:20:51.473Z,4.30
2018-12-17T15:25:54.799Z,5.57
2018-12-17T15:30:58.086Z,6.17
2018-12-17T15:36:02.130Z,6.23
2018-12-17T15:41:05.481Z,5.30
2018-12-17T15:46:08.995Z,4.90
2018-12-17T15:51:12.412Z,8.03
2018-12-17T15:56:16.071Z,6.03
2018-12-17T16:01:19.398Z,7.10
2018-12-17T16:06:23.765Z,7.33
2018-12-17T16:11:27.744Z,5.57
2018-12-17T16:16:31.229Z,4.73
2018-12-17T16:21:34.814Z,8.10
2018-12-17T16:26:38.163Z,5.87
2018-12-17T16:31:41.538Z,5.50
2018-12-17T16:36:45.244Z,5.00
2018-12-17T16:41:48.726Z,4.67
2018-12-17T16:46:52.177Z,4.20
2018-12-17T16:51:55.506Z,5.00
2018-12-17T16:56:58.882Z,4.57
2018-12-17T17:02:04.686Z,4.10
2018-12-17T17:07:08.168Z,6.57
2018-12-17T17:12:12.213Z,4.20
2018-12-17T17:17:15.551Z,4.80
2018-12-17T17:22:18.932Z,5.10
2018-12-17T17:27:22.242Z,7.17
2018-12-17T17:32:25.660Z,4.80
2018-12-17T17:37:29.276Z,5.13
2018-12-17T17:42:32.590Z,7.53
2018-12-17T17:47:36.112Z,4.70
2018-12-17T17:52:39.477Z,6.80
2018-12-17T17:57:43.062Z,6.10
2018-12-17T18:02:46.606Z,4.70
2018-12-17T18:07:50.091Z,5.20
2018-12-17T18:12:53.423Z,5.17
2018-12-17T18:17:56.833Z,6.70
2018-12-17T18:23:00.520Z,9.30
2018-12-17T18:28:03.803Z,10.10
2018-12-17T18:33:07.180Z,3.50
2018-12-17T18:38:10.428Z,3.90
2018-12-17T18:43:13.694Z,4.63
2018-12-17T18:48:16.984Z,3.90
2018-12-17T18:53:20.355Z,4.97
2018-12-17T18:58:23.801Z,3.77
2018-12-17T19:03:27.325Z,4.70
2018-12-17T19:08:30.639Z,5.17
2018-12-17T19:13:33.923Z,4.50
2018-12-17T19:18:37.675Z,7.20
2018-12-17T19:23:41.010Z,5.27
2018-12-17T19:28:44.218Z,6.33
2018-12-17T19:33:47.714Z,4.87
2018-12-17T19:38:50.980Z,7.20
2018-12-17T19:43:54.411Z,5.37
2018-12-17T19:48:57.703Z,6.30
2018-12-17T19:54:00.908Z,4.93
2018-12-17T19:59:04.154Z,6.37
2018-12-17T20:04:07.348Z,8.07
2018-12-17T20:09:10.531Z,5.97
2018-12-17T20:14:20.455Z,8.93
2018-12-17T20:19:23.711Z,7.93
2018-12-17T20:24:27.172Z,6.43
2018-12-17T20:29:30.689Z,7.47
2018-12-17T20:34:34.026Z,7.03
2018-12-17T20:39:37.518Z,6.50
2018-12-17T20:44:40.956Z,7.23
2018-12-17T20:49:44.243Z,7.53
2018-12-17T20:54:48.274Z,7.40
2018-12-17T20:59:51.704Z,7.03
2018-12-17T21:04:54.929Z,5.97
2018-12-17T21:09:58.174Z,7.30
2018-12-17T21:15:01.473Z,10.17
2018-12-17T21:20:05.109Z,8.73
2018-12-17T21:25:08.357Z,8.60
2018-12-17T21:30:11.673Z,8.90
2018-12-17T21:35:14.940Z,8.33
2018-12-17T21:40:18.380Z,8.17
2018-12-17T21:45:21.650Z,8.67
2018-12-17T21:50:25.132Z,9.93
2018-12-17T21:55:29.068Z,7.50
2018-12-17T22:00:32.334Z,9.20
2018-12-17T22:05:35.598Z,7.73
2018-12-17T22:10:38.847Z,9.73
2018-12-17T22:15:42.730Z,9.70
2018-12-17T22:20:46.030Z,11.07
2018-12-17T22:25:49.328Z,13.20
2018-12-17T22:30:52.614Z,14.63
2018-12-17T22:35:55.916Z,15.43
2018-12-17T22:40:59.075Z,12.23
2018-12-17T22:46:02.374Z,12.70
2018-12-17T22:51:05.604Z,14.63
2018-12-17T22:56:08.870Z,12.77
2018-12-17T23:01:12.360Z,14.43
2018-12-17T23:06:15.639Z,14.37
2018-12-17T23:11:30.500Z,11.60
2018-12-17T23:16:45.125Z,12.13
2018-12-17T23:21:48.419Z,11.20
2018-12-17T23:26:51.892Z,11.67
2018-12-17T23:31:55.321Z,15.87
2018-12-17T23:36:58.757Z,12.83
2018-12-17T23:42:02.014Z,14.17
2018-12-17T23:47:05.267Z,12.10
2018-12-17T23:52:08.488Z,10.63
2018-12-17T23:57:11.775Z,12.83
